Terminal Aerodrome Forecast
Issued by NWS

Home | Current Version | Previous Version | Text Only | Print | Product List | Glossary On
Versions: 1 2 3 4 5 6 7 8 9 10 11 12 13 14 15
458
FTUS43 KAPX 260530
TAFPLN
TAF
KPLN 260530Z 2606/2706 00000KT P6SM FEW250
     FM261500 24006KT P6SM FEW220
     FM262200 27009KT P6SM SCT220
     FM270100 26005KT P6SM BKN070
     FM270400 31005KT P6SM BKN050=

USA.gov is the U.S. government's official web portal to all federal, state and local government web resources and services.